Terminal Aerodrome Forecast
Issued by NWS

Home | Current Version | Previous Version | Text Only | Print | Product List | Glossary On
Versions: 1 2 3 4 5 6 7 8 9 10 11 12 13 14 15 16 17 18 19 20 21 22 23 24 25 26 27 28
949
FTUS43 KILX 210737 AAA
TAFDEC
TAF AMD
KDEC 210737Z 2108/2206 32014G22KT 6SM -FZRAPL BR BKN008 OVC015
      TEMPO 2108/2111 2SM FZRAPL BR SCT008 OVC015
     FM211100 35011KT P6SM VCSH OVC010
     FM211300 36011KT P6SM OVC020
     FM211700 01011KT P6SM BKN035
     FM212300 04010KT P6SM BKN100
     FM220400 05011KT P6SM BKN035=

USA.gov is the U.S. government's official web portal to all federal, state and local government web resources and services.